sensor_id;sensor_type;location;lat;lon;timestamp;temperature;humidity
17851;DHT22;9051;51.548;14.348;2023-03-01T18:52:49;0.00;99.90
17851;DHT22;9051;51.548;14.348;2023-03-01T18:55:21;0.00;99.90
17851;DHT22;9051;51.548;14.348;2023-03-01T18:57:53;0.00;99.90
17851;DHT22;9051;51.548;14.348;2023-03-01T19:00:25;-0.10;99.90
17851;DHT22;9051;51.548;14.348;2023-03-01T19:02:58;-0.20;99.90
17851;DHT22;9051;51.548;14.348;2023-03-01T19:05:30;-0.20;99.90
17851;DHT22;9051;51.548;14.348;2023-03-01T19:08:04;-0.20;99.90
17851;DHT22;9051;51.548;14.348;2023-03-01T19:10:36;-0.20;99.90
17851;DHT22;9051;51.548;14.348;2023-03-01T19:13:08;-0.30;99.90
17851;DHT22;9051;51.548;14.348;2023-03-01T19:15:40;-0.40;99.90
17851;DHT22;9051;51.548;14.348;2023-03-01T19:18:13;-0.40;99.90
17851;DHT22;9051;51.548;14.348;2023-03-01T19:20:45;-0.60;99.90
17851;DHT22;9051;51.548;14.348;2023-03-01T19:23:18;-0.70;99.90
17851;DHT22;9051;51.548;14.348;2023-03-01T19:25:50;-0.60;99.90
17851;DHT22;9051;51.548;14.348;2023-03-01T19:28:22;-0.60;99.90
17851;DHT22;9051;51.548;14.348;2023-03-01T19:30:58;-0.60;99.90
17851;DHT22;9051;51.548;14.348;2023-03-01T19:33:32;-0.60;99.90
17851;DHT22;9051;51.548;14.348;2023-03-01T19:36:06;-0.70;99.90
17851;DHT22;9051;51.548;14.348;2023-03-01T19:38:41;-0.70;99.90
17851;DHT22;9051;51.548;14.348;2023-03-01T19:41:15;-0.80;99.90
17851;DHT22;9051;51.548;14.348;2023-03-01T19:43:48;-0.90;99.90
17851;DHT22;9051;51.548;14.348;2023-03-01T19:46:20;-0.90;99.90
17851;DHT22;9051;51.548;14.348;2023-03-01T19:48:53;-0.90;99.90
17851;DHT22;9051;51.548;14.348;2023-03-01T19:51:25;-0.90;99.90
17851;DHT22;9051;51.548;14.348;2023-03-01T19:53:59;-0.90;99.90
17851;DHT22;9051;51.548;14.348;2023-03-01T19:56:31;-0.90;99.90
17851;DHT22;9051;51.548;14.348;2023-03-01T19:59:04;-1.00;99.90
17851;DHT22;9051;51.548;14.348;2023-03-01T20:01:36;-1.00;99.90
17851;DHT22;9051;51.548;14.348;2023-03-01T20:04:11;-1.00;99.90
17851;DHT22;9051;51.548;14.348;2023-03-01T20:06:44;-1.10;99.90
17851;DHT22;9051;51.548;14.348;2023-03-01T20:09:18;-1.10;99.90
17851;DHT22;9051;51.548;14.348;2023-03-01T20:11:51;-1.10;99.90
17851;DHT22;9051;51.548;14.348;2023-03-01T20:14:23;-1.20;99.90
17851;DHT22;9051;51.548;14.348;2023-03-01T20:16:56;-1.20;99.90
17851;DHT22;9051;51.548;14.348;2023-03-01T20:19:28;-1.20;99.90
17851;DHT22;9051;51.548;14.348;2023-03-01T20:22:00;-1.20;99.90
17851;DHT22;9051;51.548;14.348;2023-03-01T20:24:34;-1.30;99.90
17851;DHT22;9051;51.548;14.348;2023-03-01T20:27:06;-1.40;99.90
17851;DHT22;9051;51.548;14.348;2023-03-01T20:29:38;-1.40;99.90
17851;DHT22;9051;51.548;14.348;2023-03-01T20:32:10;-1.50;99.90
17851;DHT22;9051;51.548;14.348;2023-03-01T20:34:44;-1.60;99.90
17851;DHT22;9051;51.548;14.348;2023-03-01T20:37:16;-1.60;99.90
17851;DHT22;9051;51.548;14.348;2023-03-01T20:39:49;-1.70;99.90
17851;DHT22;9051;51.548;14.348;2023-03-01T20:42:21;-1.60;99.90
17851;DHT22;9051;51.548;14.348;2023-03-01T20:44:53;-1.60;99.90
17851;DHT22;9051;51.548;14.348;2023-03-01T20:47:25;-1.60;99.90
17851;DHT22;9051;51.548;14.348;2023-03-01T20:49:57;-1.60;99.90
17851;DHT22;9051;51.548;14.348;2023-03-01T20:52:31;-1.60;99.90
17851;DHT22;9051;51.548;14.348;2023-03-01T20:55:05;-1.70;99.90
17851;DHT22;9051;51.548;14.348;2023-03-01T20:57:38;-1.80;99.90
17851;DHT22;9051;51.548;14.348;2023-03-01T21:00:11;-1.90;99.90
17851;DHT22;9051;51.548;14.348;2023-03-01T21:02:43;-1.80;99.90
17851;DHT22;9051;51.548;14.348;2023-03-01T21:05:15;-1.90;99.90
17851;DHT22;9051;51.548;14.348;2023-03-01T21:07:47;-1.80;99.90
17851;DHT22;9051;51.548;14.348;2023-03-01T21:10:20;-1.90;99.90
17851;DHT22;9051;51.548;14.348;2023-03-01T21:12:52;-1.90;99.90
17851;DHT22;9051;51.548;14.348;2023-03-01T21:15:24;-1.90;99.90
17851;DHT22;9051;51.548;14.348;2023-03-01T21:17:58;-1.90;99.90
17851;DHT22;9051;51.548;14.348;2023-03-01T21:20:30;-1.90;99.90
17851;DHT22;9051;51.548;14.348;2023-03-01T21:23:02;-1.90;99.90
17851;DHT22;9051;51.548;14.348;2023-03-01T21:25:36;-1.90;99.90
17851;DHT22;9051;51.548;14.348;2023-03-01T21:28:10;-1.90;99.90
17851;DHT22;9051;51.548;14.348;2023-03-01T21:30:42;-1.90;99.90
17851;DHT22;9051;51.548;14.348;2023-03-01T21:33:14;-2.00;99.90
17851;DHT22;9051;51.548;14.348;2023-03-01T21:35:46;-2.10;99.90
17851;DHT22;9051;51.548;14.348;2023-03-01T21:38:18;-2.10;99.90
17851;DHT22;9051;51.548;14.348;2023-03-01T21:40:52;-2.20;99.90
17851;DHT22;9051;51.548;14.348;2023-03-01T21:43:24;-2.10;99.90
17851;DHT22;9051;51.548;14.348;2023-03-01T21:45:56;-2.20;99.90
17851;DHT22;9051;51.548;14.348;2023-03-01T21:48:31;-2.40;99.90
17851;DHT22;9051;51.548;14.348;2023-03-01T21:51:04;-2.40;99.90
17851;DHT22;9051;51.548;14.348;2023-03-01T21:53:36;-2.50;99.90
17851;DHT22;9051;51.548;14.348;2023-03-01T21:56:14;-2.50;99.90
17851;DHT22;9051;51.548;14.348;2023-03-01T21:58:46;-2.50;99.90
17851;DHT22;9051;51.548;14.348;2023-03-01T22:01:22;-2.50;99.90
17851;DHT22;9051;51.548;14.348;2023-03-01T22:03:56;-2.50;99.90
17851;DHT22;9051;51.548;14.348;2023-03-01T22:06:30;-2.50;99.90
17851;DHT22;9051;51.548;14.348;2023-03-01T22:09:05;-2.50;99.90
17851;DHT22;9051;51.548;14.348;2023-03-01T22:11:41;-2.50;99.90
17851;DHT22;9051;51.548;14.348;2023-03-01T22:14:13;-2.50;99.90
17851;DHT22;9051;51.548;14.348;2023-03-01T22:16:46;-2.50;99.90
17851;DHT22;9051;51.548;14.348;2023-03-01T22:19:21;-2.50;99.90
17851;DHT22;9051;51.548;14.348;2023-03-01T22:21:53;-2.60;99.90
17851;DHT22;9051;51.548;14.348;2023-03-01T22:24:25;-2.60;99.90
17851;DHT22;9051;51.548;14.348;2023-03-01T22:26:58;-2.60;99.90
17851;DHT22;9051;51.548;14.348;2023-03-01T22:29:30;-2.70;99.90
17851;DHT22;9051;51.548;14.348;2023-03-01T22:32:02;-2.80;99.90
17851;DHT22;9051;51.548;14.348;2023-03-01T22:34:34;-2.80;99.90
17851;DHT22;9051;51.548;14.348;2023-03-01T22:37:06;-2.90;99.90
17851;DHT22;9051;51.548;14.348;2023-03-01T22:39:38;-2.90;99.90
17851;DHT22;9051;51.548;14.348;2023-03-01T22:42:11;-2.80;99.90
17851;DHT22;9051;51.548;14.348;2023-03-01T22:44:43;-2.80;99.90
17851;DHT22;9051;51.548;14.348;2023-03-01T22:47:15;-2.80;99.90
17851;DHT22;9051;51.548;14.348;2023-03-01T22:49:47;-2.80;99.90
17851;DHT22;9051;51.548;14.348;2023-03-01T22:52:19;-2.80;99.90
17851;DHT22;9051;51.548;14.348;2023-03-01T22:54:53;-2.90;99.90
17851;DHT22;9051;51.548;14.348;2023-03-01T22:57:26;-2.90;99.90
17851;DHT22;9051;51.548;14.348;2023-03-01T22:59:58;-3.00;99.90
17851;DHT22;9051;51.548;14.348;2023-03-01T23:02:31;-3.10;99.90
17851;DHT22;9051;51.548;14.348;2023-03-01T23:05:05;-3.00;99.90
17851;DHT22;9051;51.548;14.348;2023-03-01T23:07:37;-3.10;99.90
17851;DHT22;9051;51.548;14.348;2023-03-01T23:10:10;-3.10;99.90
17851;DHT22;9051;51.548;14.348;2023-03-01T23:12:43;-3.10;99.90
17851;DHT22;9051;51.548;14.348;2023-03-01T23:15:15;-3.10;99.90
17851;DHT22;9051;51.548;14.348;2023-03-01T23:17:47;-3.10;99.90
17851;DHT22;9051;51.548;14.348;2023-03-01T23:20:20;-3.00;99.90
17851;DHT22;9051;51.548;14.348;2023-03-01T23:22:52;-3.00;99.90
17851;DHT22;9051;51.548;14.348;2023-03-01T23:25:31;-3.00;99.90
17851;DHT22;9051;51.548;14.348;2023-03-01T23:28:32;-3.00;99.90
17851;DHT22;9051;51.548;14.348;2023-03-01T23:31:06;-3.00;99.90
17851;DHT22;9051;51.548;14.348;2023-03-01T23:33:39;-3.00;99.90
17851;DHT22;9051;51.548;14.348;2023-03-01T23:36:18;-3.10;99.90
17851;DHT22;9051;51.548;14.348;2023-03-01T23:38:51;-3.10;99.90
17851;DHT22;9051;51.548;14.348;2023-03-01T23:41:25;-3.10;99.90
17851;DHT22;9051;51.548;14.348;2023-03-01T23:44:02;-3.10;99.90
17851;DHT22;9051;51.548;14.348;2023-03-01T23:46:36;-3.10;99.90
17851;DHT22;9051;51.548;14.348;2023-03-01T23:49:10;-3.10;99.90
17851;DHT22;9051;51.548;14.348;2023-03-01T23:51:44;-3.10;99.90
17851;DHT22;9051;51.548;14.348;2023-03-01T23:54:18;-3.10;99.90
17851;DHT22;9051;51.548;14.348;2023-03-01T23:56:51;-3.10;99.90
17851;DHT22;9051;51.548;14.348;2023-03-01T23:59:43;-3.10;99.90
